Time;durP1;ratioP1;P1;durP2;ratioP2;P2;SDS_P1;SDS_P2;PMS_P1;PMS_P2;Temp;Humidity;BMP_temperature;BMP_pressure;BME280_temperature;BME280_humidity;BME280_pressure;Samples;Min_cycle;Max_cycle;Signal;HPM_P1;HPM_P2
2022/07/20 00:00:58;;;;;;;6.90;5.27;;;28.80;29.80;;;;;;20771;6840;117796;-87
2022/07/20 00:03:23;;;;;;;5.47;5.03;;;28.60;29.50;;;;;;20558;6840;302172;-87
2022/07/20 00:05:49;;;;;;;5.40;5.00;;;28.60;29.60;;;;;;20563;6840;306941;-87
2022/07/20 00:11:19;;;;;;;5.28;4.87;;;28.70;29.90;;;;;;20548;6840;278376;-87
2022/07/20 00:13:25;;;;;;;7.13;5.37;;;28.80;29.80;;;;;;20635;6840;277434;-87
2022/07/20 00:15:51;;;;;;;6.03;5.62;;;28.80;29.80;;;;;;20584;6840;310492;-87
2022/07/20 00:18:18;;;;;;;5.90;5.40;;;28.70;29.90;;;;;;20564;6840;304493;-87
2022/07/20 00:20:43;;;;;;;5.78;5.25;;;28.30;29.90;;;;;;20759;6840;118417;-86
2022/07/20 00:23:08;;;;;;;5.97;5.37;;;28.30;29.80;;;;;;20563;6840;308449;-87
2022/07/20 00:25:34;;;;;;;5.60;5.20;;;28.20;30.00;;;;;;20547;6840;308547;-87
2022/07/20 00:27:59;;;;;;;6.03;5.47;;;28.20;30.00;;;;;;20549;6840;281335;-87
2022/07/20 00:30:27;;;;;;;5.40;5.00;;;28.30;30.00;;;;;;20754;6840;127351;-87
2022/07/20 00:32:55;;;;;;;5.47;4.93;;;28.00;30.10;;;;;;20723;6855;117547;-86
2022/07/20 00:35:20;;;;;;;5.93;4.90;;;27.50;30.60;;;;;;20749;6848;119500;-87
2022/07/20 00:37:46;;;;;;;8.20;5.87;;;27.10;31.10;;;;;;20539;6848;277128;-87
2022/07/20 00:40:13;;;;;;;6.63;6.03;;;27.20;31.30;;;;;;20564;6840;308322;-87
2022/07/20 00:42:39;;;;;;;6.67;5.93;;;27.40;31.10;;;;;;20541;6840;284505;-87
2022/07/20 00:45:05;;;;;;;6.20;5.67;;;27.60;31.30;;;;;;20557;6840;308213;-87
2022/07/20 00:47:31;;;;;;;6.85;5.80;;;27.60;30.80;;;;;;20546;6840;308591;-87
2022/07/20 00:49:56;;;;;;;6.87;5.90;;;27.60;30.60;;;;;;20768;6840;118367;-87
2022/07/20 00:52:22;;;;;;;6.40;5.57;;;27.30;30.90;;;;;;20563;6840;278907;-87
2022/07/20 00:54:49;;;;;;;6.80;5.60;;;27.20;30.80;;;;;;20534;6840;338122;-87
2022/07/20 00:57:14;;;;;;;7.75;5.50;;;27.40;30.80;;;;;;20557;6838;308938;-87
2022/07/20 00:59:39;;;;;;;5.43;4.83;;;27.50;30.50;;;;;;20766;6839;119084;-88
2022/07/20 01:02:05;;;;;;;5.80;5.30;;;27.20;30.70;;;;;;20560;6839;308692;-87
2022/07/20 01:04:30;;;;;;;5.68;5.18;;;27.20;31.20;;;;;;20547;6839;337321;-87
2022/07/20 01:06:57;;;;;;;5.93;5.40;;;27.10;31.20;;;;;;20778;6840;117725;-87
2022/07/20 01:09:22;;;;;;;5.47;5.00;;;27.10;31.20;;;;;;20764;6840;117308;-87
2022/07/20 01:11:48;;;;;;;5.60;5.07;;;26.70;31.60;;;;;;20777;6840;117613;-87
2022/07/20 01:14:13;;;;;;;7.33;5.53;;;26.40;32.00;;;;;;20558;6840;311148;-87
2022/07/20 01:16:40;;;;;;;6.37;5.55;;;26.80;31.90;;;;;;20540;6840;310807;-87
2022/07/20 01:19:05;;;;;;;12.83;5.50;;;26.80;31.90;;;;;;20770;6840;117302;-87
2022/07/20 01:21:31;;;;;;;6.23;5.23;;;26.70;31.70;;;;;;20546;6840;307664;-87
2022/07/20 01:23:56;;;;;;;6.12;5.47;;;26.80;31.90;;;;;;20551;6840;340014;-87
2022/07/20 01:26:22;;;;;;;4.93;4.67;;;27.00;31.60;;;;;;20768;6840;117188;-87
2022/07/20 01:28:47;;;;;;;6.17;5.33;;;26.80;31.50;;;;;;20527;6840;278926;-87
2022/07/20 01:31:13;;;;;;;5.70;5.35;;;26.90;31.90;;;;;;20756;6840;117072;-87
2022/07/20 01:33:39;;;;;;;6.10;5.50;;;26.80;32.10;;;;;;20552;6840;278926;-87
2022/07/20 01:36:05;;;;;;;5.83;5.20;;;26.80;32.00;;;;;;20765;6840;120059;-87
2022/07/20 01:38:31;;;;;;;5.73;5.23;;;26.80;32.60;;;;;;20523;6840;281219;-89
2022/07/20 01:40:57;;;;;;;7.33;5.07;;;26.70;32.50;;;;;;20554;6840;301326;-88
2022/07/20 01:43:24;;;;;;;5.80;5.40;;;27.00;32.50;;;;;;20767;6840;117436;-87
2022/07/20 01:45:49;;;;;;;5.78;5.25;;;26.70;32.40;;;;;;20550;6840;340206;-86
2022/07/20 01:48:15;;;;;;;5.50;5.00;;;26.70;32.70;;;;;;20769;6840;120466;-87
2022/07/20 01:50:40;;;;;;;5.25;4.85;;;26.60;32.80;;;;;;20746;6840;118269;-86
2022/07/20 01:53:06;;;;;;;11.73;5.00;;;26.30;33.10;;;;;;20766;6840;120170;-87
2022/07/20 01:55:31;;;;;;;6.87;5.20;;;26.00;33.40;;;;;;20553;6840;308398;-86
2022/07/20 01:57:58;;;;;;;6.12;5.60;;;26.40;33.60;;;;;;20548;6840;309370;-86
2022/07/20 02:00:23;;;;;;;5.80;5.30;;;26.40;33.60;;;;;;20765;6840;119134;-86
2022/07/20 02:02:49;;;;;;;5.40;5.00;;;26.30;33.50;;;;;;20748;6840;117477;-87
2022/07/20 02:05:14;;;;;;;5.70;5.20;;;26.00;33.70;;;;;;20560;6840;283719;-89
2022/07/20 02:07:40;;;;;;;6.28;5.18;;;26.10;33.80;;;;;;20555;6840;308922;-86
2022/07/20 02:10:06;;;;;;;5.43;4.97;;;26.30;33.80;;;;;;20776;6838;117685;-88
2022/07/20 02:12:31;;;;;;;5.43;5.03;;;26.20;33.80;;;;;;20823;6839;118926;-89
2022/07/20 02:14:57;;;;;;;5.97;4.80;;;25.90;34.10;;;;;;20781;6839;119418;-86
2022/07/20 02:17:23;;;;;;;6.13;5.30;;;25.40;35.10;;;;;;20772;6839;118314;-87
2022/07/20 02:19:49;;;;;;;6.00;5.35;;;25.40;34.60;;;;;;20553;6840;340287;-87
2022/07/20 02:22:14;;;;;;;5.83;5.10;;;25.60;34.70;;;;;;20555;6840;279228;-87
2022/07/20 02:24:40;;;;;;;6.00;5.50;;;26.00;34.30;;;;;;20540;6840;339632;-86
2022/07/20 02:27:05;;;;;;;5.70;5.20;;;26.20;33.90;;;;;;20558;6840;310951;-87
2022/07/20 02:29:31;;;;;;;6.00;5.23;;;26.40;34.10;;;;;;20768;6840;119774;-87
2022/07/20 02:31:56;;;;;;;5.10;4.67;;;26.10;34.20;;;;;;20769;6840;117112;-87
2022/07/20 02:34:22;;;;;;;5.43;5.00;;;25.80;34.60;;;;;;20767;6840;117173;-88
2022/07/20 02:36:47;;;;;;;5.80;5.30;;;25.50;35.00;;;;;;20539;6840;280781;-88
2022/07/20 02:39:13;;;;;;;6.10;5.63;;;25.60;35.60;;;;;;20554;6840;308481;-87
2022/07/20 02:41:39;;;;;;;6.10;5.60;;;25.90;34.90;;;;;;20555;6840;310935;-87
2022/07/20 02:44:04;;;;;;;5.47;5.03;;;26.20;35.00;;;;;;20764;6840;118235;-87
2022/07/20 02:46:30;;;;;;;5.47;5.15;;;25.90;34.70;;;;;;20538;6840;309698;-88
2022/07/20 02:48:55;;;;;;;8.53;6.23;;;26.00;35.00;;;;;;20769;6840;117821;-86
2022/07/20 02:51:21;;;;;;;6.13;5.73;;;25.70;34.80;;;;;;20549;6840;308528;-86
2022/07/20 02:53:46;;;;;;;5.90;5.50;;;25.80;34.60;;;;;;20767;6840;119745;-86
2022/07/20 02:56:12;;;;;;;6.20;5.68;;;25.60;34.90;;;;;;20567;6840;310864;-87
2022/07/20 02:58:37;;;;;;;6.30;5.70;;;25.70;35.10;;;;;;20545;6840;278842;-87
2022/07/20 03:01:03;;;;;;;6.17;5.57;;;25.80;34.90;;;;;;20570;6840;283444;-89
2022/07/20 03:03:29;;;;;;;7.47;5.60;;;26.00;34.80;;;;;;20562;6840;310029;-87
2022/07/20 03:05:54;;;;;;;7.87;5.90;;;26.00;34.50;;;;;;20755;6840;119321;-87
2022/07/20 03:08:20;;;;;;;5.78;5.35;;;25.80;34.80;;;;;;20560;6840;307780;-87
2022/07/20 03:10:45;;;;;;;6.37;5.77;;;25.80;35.10;;;;;;20537;6840;278612;-86
2022/07/20 03:13:11;;;;;;;5.70;5.30;;;25.90;34.90;;;;;;20772;6840;117650;-87
2022/07/20 03:15:36;;;;;;;7.63;5.60;;;25.60;35.00;;;;;;20556;6840;308190;-87
2022/07/20 03:18:02;;;;;;;6.80;5.40;;;25.60;35.20;;;;;;20778;6840;119302;-87
2022/07/20 03:20:29;;;;;;;6.47;5.87;;;25.40;35.30;;;;;;20536;6838;308441;-87
2022/07/20 03:22:54;;;;;;;6.10;5.60;;;25.40;35.70;;;;;;20762;6839;117220;-87
2022/07/20 03:25:20;;;;;;;9.27;5.23;;;25.20;35.60;;;;;;20766;6839;117086;-87
2022/07/20 03:27:45;;;;;;;6.10;5.50;;;24.90;36.10;;;;;;20780;6839;117203;-88
2022/07/20 03:30:11;;;;;;;6.60;6.00;;;24.70;36.40;;;;;;20558;6840;307441;-86
2022/07/20 03:32:37;;;;;;;6.13;5.67;;;24.80;36.70;;;;;;20536;6840;278345;-86
2022/07/20 03:35:02;;;;;;;6.10;5.60;;;25.20;36.50;;;;;;20566;6840;323628;-86
2022/07/20 03:37:29;;;;;;;5.93;5.40;;;25.60;37.60;;;;;;20554;6840;281902;-87
2022/07/20 03:39:54;;;;;;;6.77;5.93;;;25.50;37.60;;;;;;20554;6840;310983;-87
2022/07/20 03:42:21;;;;;;;6.10;5.53;;;25.40;37.30;;;;;;20771;6840;119519;-87
2022/07/20 03:44:46;;;;;;;6.68;6.18;;;25.40;37.30;;;;;;20550;6840;309974;-88
2022/07/20 03:47:13;;;;;;;5.67;4.80;;;25.30;37.90;;;;;;20557;6840;278844;-87
2022/07/20 03:49:39;;;;;;;6.37;5.77;;;25.40;38.10;;;;;;20777;6840;117092;-87
2022/07/20 03:52:04;;;;;;;7.77;6.17;;;25.30;38.10;;;;;;20563;6840;308513;-87
2022/07/20 03:54:30;;;;;;;6.97;6.30;;;25.40;37.50;;;;;;20751;6840;118750;-87
2022/07/20 03:56:56;;;;;;;7.00;6.10;;;25.50;37.20;;;;;;20561;6840;278144;-87
2022/07/20 03:59:23;;;;;;;7.40;5.80;;;25.50;37.20;;;;;;20770;6840;118192;-87
2022/07/20 04:01:48;;;;;;;6.70;6.00;;;25.50;37.10;;;;;;20556;6840;308446;-87
2022/07/20 04:04:15;;;;;;;6.53;6.03;;;25.80;36.90;;;;;;20776;6840;117046;-89
2022/07/20 04:06:41;;;;;;;6.57;6.00;;;26.10;36.30;;;;;;20536;6840;278973;-88
2022/07/20 04:09:07;;;;;;;7.70;6.20;;;26.10;36.20;;;;;;20564;6840;310389;-88
2022/07/20 04:11:35;;;;;;;8.90;6.40;;;26.50;35.60;;;;;;20595;6840;310395;-88
2022/07/20 04:13:59;;;;;;;7.68;6.00;;;26.70;35.20;;;;;;20544;6840;278546;-88
2022/07/20 04:16:25;;;;;;;6.33;5.77;;;26.90;34.90;;;;;;20777;6840;117164;-86
2022/07/20 04:18:51;;;;;;;6.20;5.70;;;26.80;35.00;;;;;;20417;6840;278474;-86
2022/07/20 04:21:16;;;;;;;6.65;6.10;;;26.80;35.20;;;;;;20567;6840;308568;-85
2022/07/20 04:23:43;;;;;;;6.43;5.87;;;27.10;34.50;;;;;;20549;6840;338996;-85
2022/07/20 04:26:08;;;;;;;7.30;5.53;;;27.10;34.50;;;;;;20768;6840;120213;-86
2022/07/20 04:28:34;;;;;;;5.90;5.30;;;26.90;34.80;;;;;;20755;6840;118400;-86
2022/07/20 04:30:59;;;;;;;8.67;7.17;;;26.50;35.30;;;;;;20762;6840;118095;-86
2022/07/20 04:33:25;;;;;;;6.47;5.80;;;26.00;35.90;;;;;;20772;6838;117125;-86
2022/07/20 04:35:51;;;;;;;6.67;6.10;;;26.00;35.90;;;;;;20771;6839;118296;-84
2022/07/20 04:38:17;;;;;;;6.27;5.67;;;25.90;36.30;;;;;;20778;6839;117084;-84
2022/07/20 04:40:42;;;;;;;6.40;5.87;;;25.70;36.50;;;;;;20514;6839;308918;-83
2022/07/20 04:43:08;;;;;;;5.83;5.20;;;26.00;36.80;;;;;;20771;6840;118123;-83
2022/07/20 04:45:34;;;;;;;6.30;5.80;;;26.20;36.60;;;;;;20563;6840;289268;-86
2022/07/20 04:47:59;;;;;;;6.12;5.72;;;26.20;36.60;;;;;;20546;6840;308577;-86
2022/07/20 04:50:27;;;;;;;6.67;6.17;;;26.70;35.50;;;;;;20551;6840;308004;-86
2022/07/20 04:52:53;;;;;;;6.03;5.53;;;26.70;35.50;;;;;;20625;6840;117247;-86
2022/07/20 04:55:18;;;;;;;6.37;5.77;;;26.60;35.60;;;;;;20777;6840;116300;-86
2022/07/20 04:57:44;;;;;;;6.80;6.30;;;26.30;35.80;;;;;;20556;6840;342190;-86
2022/07/20 05:00:11;;;;;;;6.97;6.27;;;26.50;35.60;;;;;;20774;6840;118782;-90
2022/07/20 05:02:36;;;;;;;6.28;5.80;;;26.20;35.70;;;;;;20741;6840;127097;-89
2022/07/20 05:05:02;;;;;;;6.60;6.20;;;26.20;35.70;;;;;;20769;6840;119178;-86
2022/07/20 05:07:27;;;;;;;7.23;6.73;;;26.00;35.90;;;;;;20561;6840;308555;-85
2022/07/20 05:09:54;;;;;;;7.30;6.43;;;26.30;35.90;;;;;;20557;6840;308283;-86
2022/07/20 05:12:20;;;;;;;7.37;6.70;;;26.70;35.40;;;;;;20773;6840;119958;-87
2022/07/20 05:14:46;;;;;;;8.73;7.00;;;26.80;35.00;;;;;;20542;6840;458748;-87
2022/07/20 05:17:12;;;;;;;6.57;6.17;;;26.80;35.30;;;;;;20778;6840;117235;-87
2022/07/20 05:19:37;;;;;;;7.82;6.75;;;26.70;35.30;;;;;;20574;6840;339359;-86
2022/07/20 05:22:03;;;;;;;7.97;6.70;;;26.80;35.40;;;;;;20798;6840;117315;-85
2022/07/20 05:24:28;;;;;;;7.35;6.75;;;26.60;35.50;;;;;;20572;6840;278587;-85
2022/07/20 05:26:54;;;;;;;7.30;6.70;;;26.60;35.60;;;;;;20787;6840;117327;-88
2022/07/20 05:29:20;;;;;;;8.70;6.60;;;26.10;36.10;;;;;;20765;6840;117558;-86
2022/07/20 05:31:46;;;;;;;7.30;6.70;;;26.10;36.10;;;;;;20565;6840;279041;-86
2022/07/20 05:34:11;;;;;;;6.50;5.97;;;26.30;36.50;;;;;;20763;6840;117122;-86
2022/07/20 05:36:37;;;;;;;6.90;6.50;;;26.20;36.40;;;;;;20539;6840;308140;-86
2022/07/20 05:39:03;;;;;;;6.90;6.40;;;26.40;36.10;;;;;;20775;6840;117711;-86
2022/07/20 05:41:28;;;;;;;7.20;6.60;;;26.50;36.10;;;;;;20555;6840;308209;-86
2022/07/20 05:43:54;;;;;;;7.47;6.77;;;26.70;35.90;;;;;;20771;6838;118348;-85
2022/07/20 05:46:19;;;;;;;6.43;5.90;;;26.70;36.00;;;;;;20765;6839;117465;-85
2022/07/20 05:48:45;;;;;;;7.67;6.97;;;26.40;36.50;;;;;;20546;6839;279923;-88
2022/07/20 05:51:10;;;;;;;7.13;6.53;;;26.50;37.10;;;;;;20774;6839;117274;-87
2022/07/20 05:53:36;;;;;;;7.18;6.68;;;26.40;37.00;;;;;;20781;6840;120075;-90
2022/07/20 05:56:01;;;;;;;7.70;7.10;;;26.10;37.40;;;;;;20580;6840;278530;-86
2022/07/20 05:58:27;;;;;;;7.83;7.13;;;26.30;37.70;;;;;;20556;6840;279094;-86
2022/07/20 06:00:53;;;;;;;8.20;7.05;;;26.90;36.20;;;;;;20574;6840;308078;-86
2022/07/20 06:03:21;;;;;;;8.10;7.27;;;27.10;35.90;;;;;;20566;6840;279647;-86
2022/07/20 06:05:46;;;;;;;8.00;6.95;;;27.10;36.20;;;;;;20568;6840;280089;-86
2022/07/20 06:08:12;;;;;;;7.12;6.53;;;27.30;36.50;;;;;;20783;6840;118801;-86
2022/07/20 06:10:37;;;;;;;7.70;7.10;;;27.20;36.60;;;;;;20539;6840;294540;-86
2022/07/20 06:13:03;;;;;;;7.43;6.73;;;27.30;37.30;;;;;;20783;6840;117692;-87
2022/07/20 06:15:29;;;;;;;7.17;6.77;;;27.20;37.00;;;;;;20775;6840;117579;-87
2022/07/20 06:17:56;;;;;;;7.00;6.40;;;27.00;37.40;;;;;;20792;6840;117819;-87
2022/07/20 06:20:21;;;;;;;8.03;6.93;;;26.90;37.10;;;;;;20563;6840;308535;-87
2022/07/20 06:22:47;;;;;;;7.20;6.47;;;27.20;37.00;;;;;;20764;6840;117764;-87
2022/07/20 06:25:12;;;;;;;7.40;6.67;;;27.30;36.60;;;;;;20568;6840;277910;-87
2022/07/20 06:27:38;;;;;;;7.47;6.85;;;27.60;36.30;;;;;;20542;6840;308316;-87
2022/07/20 06:30:04;;;;;;;8.13;7.07;;;28.10;36.70;;;;;;20777;6840;117063;-87
2022/07/20 06:32:29;;;;;;;7.27;6.77;;;28.40;36.80;;;;;;20540;6840;282103;-87
2022/07/20 06:34:56;;;;;;;7.57;6.93;;;29.00;36.10;;;;;;20567;6840;308007;-87
2022/07/20 06:37:22;;;;;;;7.13;6.50;;;29.80;34.70;;;;;;20765;6840;121059;-87
2022/07/20 06:39:48;;;;;;;7.67;6.97;;;30.30;34.70;;;;;;20560;6840;279442;-86
2022/07/20 06:42:14;;;;;;;6.80;6.30;;;31.00;33.10;;;;;;20601;6840;307695;-85
2022/07/20 06:44:40;;;;;;;7.18;6.50;;;31.80;31.70;;;;;;20808;6840;117765;-85
2022/07/20 06:47:05;;;;;;;7.62;6.35;;;32.10;32.10;;;;;;20624;6840;279712;-86
2022/07/20 06:49:31;;;;;;;6.90;6.33;;;32.70;30.00;;;;;;20840;6840;118045;-85
2022/07/20 06:51:56;;;;;;;6.30;5.80;;;33.00;30.50;;;;;;20843;6840;118129;-86
2022/07/20 06:54:23;;;;;;;6.90;6.13;;;33.20;30.80;;;;;;20852;6838;116959;-85
2022/07/20 06:56:48;;;;;;;6.90;6.30;;;33.50;30.60;;;;;;20621;6839;336055;-86
2022/07/20 06:59:14;;;;;;;6.37;5.90;;;34.00;29.60;;;;;;20857;6839;117124;-86
2022/07/20 07:01:40;;;;;;;7.10;6.50;;;34.80;29.00;;;;;;20624;6839;311228;-86
2022/07/20 07:04:06;;;;;;;6.53;6.03;;;34.70;28.90;;;;;;20776;6839;117027;-86
2022/07/20 07:06:33;;;;;;;6.82;6.22;;;34.90;29.00;;;;;;20570;6840;278565;-86
2022/07/20 07:08:58;;;;;;;6.87;6.23;;;35.20;28.90;;;;;;20770;6840;117646;-85
2022/07/20 07:11:24;;;;;;;6.53;6.00;;;35.20;28.90;;;;;;20778;6840;119907;-85
2022/07/20 07:13:51;;;;;;;6.83;6.23;;;35.00;29.10;;;;;;20565;6840;284067;-85
2022/07/20 07:16:16;;;;;;;7.10;6.40;;;35.20;27.80;;;;;;20559;6840;308199;-86
2022/07/20 07:18:43;;;;;;;6.97;6.32;;;35.50;27.70;;;;;;20546;6840;280661;-87
2022/07/20 07:21:09;;;;;;;8.93;6.70;;;35.60;27.70;;;;;;20766;6840;117306;-86
2022/07/20 07:23:34;;;;;;;8.47;6.90;;;35.40;27.80;;;;;;20770;6840;117370;-87
2022/07/20 07:26:01;;;;;;;12.23;6.63;;;35.10;28.00;;;;;;20766;6840;119441;-86
2022/07/20 07:28:27;;;;;;;7.00;6.30;;;34.80;28.20;;;;;;20748;6840;117367;-85
2022/07/20 07:30:52;;;;;;;7.10;6.40;;;34.70;28.30;;;;;;20759;6840;114079;-87
2022/07/20 07:33:19;;;;;;;6.70;6.20;;;34.50;28.50;;;;;;20549;6840;338632;-88
2022/07/20 07:35:43;;;;;;;6.33;5.80;;;34.60;28.20;;;;;;20761;6840;117579;-87
2022/07/20 07:38:09;;;;;;;6.90;6.20;;;34.60;28.30;;;;;;20755;6840;117481;-87
2022/07/20 07:40:34;;;;;;;7.87;6.37;;;34.40;28.20;;;;;;20536;6840;335743;-87
2022/07/20 07:43:00;;;;;;;7.17;6.43;;;34.50;28.40;;;;;;20767;6840;118266;-87
2022/07/20 07:45:26;;;;;;;7.03;6.35;;;34.30;28.20;;;;;;20769;6840;117544;-87
2022/07/20 07:47:52;;;;;;;6.47;5.87;;;34.30;28.20;;;;;;20769;6840;116542;-87
2022/07/20 07:50:22;;;;;;;9.00;6.40;;;34.10;28.60;;;;;;20754;6840;117102;-87
2022/07/20 07:52:48;;;;;;;6.70;6.07;;;34.10;28.60;;;;;;20543;6840;308653;-87
2022/07/20 07:55:15;;;;;;;7.10;6.40;;;34.40;27.90;;;;;;20562;6840;308082;-86
2022/07/20 07:57:41;;;;;;;6.77;6.00;;;34.70;27.70;;;;;;20771;6840;117102;-89
2022/07/20 08:00:07;;;;;;;8.97;6.27;;;34.80;28.20;;;;;;20769;6840;117478;-89
2022/07/20 08:02:32;;;;;;;6.97;6.37;;;34.70;28.20;;;;;;20768;6840;129913;-91
2022/07/20 08:04:58;;;;;;;6.37;5.70;;;34.60;28.30;;;;;;20769;6840;117276;-92
2022/07/20 08:07:25;;;;;;;7.87;5.50;;;34.60;28.30;;;;;;20775;6838;118423;-91
2022/07/20 08:09:50;;;;;;;6.10;5.60;;;34.70;28.30;;;;;;20567;6839;279917;-90
2022/07/20 08:12:16;;;;;;;6.53;5.47;;;35.00;27.70;;;;;;20773;6839;117363;-89
2022/07/20 08:14:41;;;;;;;8.17;5.93;;;35.20;27.30;;;;;;20759;6839;118587;-90
2022/07/20 08:17:08;;;;;;;6.27;5.73;;;35.40;27.10;;;;;;20562;6840;279399;-90
2022/07/20 08:19:33;;;;;;;5.60;5.23;;;35.30;27.00;;;;;;20563;6840;281793;-89
2022/07/20 08:22:00;;;;;;;6.00;5.50;;;36.10;27.00;;;;;;20564;6840;307669;-89
2022/07/20 08:24:27;;;;;;;5.82;5.43;;;36.10;26.70;;;;;;20555;6840;317403;-89
2022/07/20 08:26:52;;;;;;;7.80;5.43;;;36.50;27.00;;;;;;20561;6840;307552;-88
2022/07/20 08:29:18;;;;;;;6.53;5.93;;;36.70;25.90;;;;;;20773;6840;117638;-90
2022/07/20 08:31:44;;;;;;;6.73;5.57;;;36.50;26.30;;;;;;20775;6840;118275;-89
2022/07/20 08:34:10;;;;;;;6.17;5.67;;;36.50;26.30;;;;;;20765;6840;119356;-89
2022/07/20 08:36:36;;;;;;;6.43;5.90;;;36.30;26.70;;;;;;20763;6840;117664;-89
2022/07/20 08:39:05;;;;;;;5.83;5.27;;;36.20;26.20;;;;;;20776;6840;117949;-90
2022/07/20 08:41:28;;;;;;;7.43;6.07;;;36.20;27.00;;;;;;20770;6840;119893;-89
2022/07/20 08:43:54;;;;;;;8.53;5.67;;;36.20;27.30;;;;;;20765;6840;118327;-90
2022/07/20 08:46:20;;;;;;;6.57;5.90;;;36.30;27.30;;;;;;20559;6840;308498;-89
2022/07/20 08:48:45;;;;;;;6.30;5.80;;;36.60;27.20;;;;;;20533;6840;301448;-89
2022/07/20 08:51:11;;;;;;;5.87;5.30;;;37.10;26.90;;;;;;20769;6840;119642;-89
2022/07/20 08:53:36;;;;;;;6.20;5.70;;;37.20;26.00;;;;;;20774;6840;118063;-89
2022/07/20 08:56:02;;;;;;;5.87;5.53;;;37.10;25.80;;;;;;20773;6840;117908;-89
2022/07/20 08:58:29;;;;;;;6.90;6.20;;;37.10;26.00;;;;;;20754;6840;117892;-90
2022/07/20 09:00:54;;;;;;;6.53;5.93;;;37.00;25.80;;;;;;20538;6840;284426;-89
2022/07/20 09:03:21;;;;;;;7.43;6.20;;;37.30;26.30;;;;;;20558;6840;340409;-90
2022/07/20 09:05:46;;;;;;;6.93;6.20;;;37.70;25.60;;;;;;20561;6840;280755;-89
2022/07/20 09:08:19;;;;;;;6.23;5.73;;;38.20;25.00;;;;;;20716;6840;117659;-88
2022/07/20 09:10:41;;;;;;;6.60;5.93;;;38.10;25.00;;;;;;20725;6840;118002;-89
2022/07/20 09:13:07;;;;;;;6.50;5.90;;;38.10;25.30;;;;;;20764;6840;119838;-89
2022/07/20 09:15:38;;;;;;;6.20;5.80;;;38.00;25.40;;;;;;20745;6840;117738;-89
2022/07/20 09:18:18;;;;;;;6.17;5.67;;;38.00;25.30;;;;;;20750;6838;117123;-90
2022/07/20 09:20:50;;;;;;;6.20;5.70;;;37.90;25.30;;;;;;20546;6839;337702;-89
2022/07/20 09:23:18;;;;;;;6.30;5.73;;;38.30;24.70;;;;;;20541;6839;117625;-89
2022/07/20 09:26:00;;;;;;;6.53;6.03;;;38.50;24.70;;;;;;20564;6839;307727;-90
2022/07/20 09:28:39;;;;;;;6.27;5.67;;;38.70;24.50;;;;;;20561;6840;278617;-91
2022/07/20 09:31:18;;;;;;;7.53;5.80;;;39.10;24.90;;;;;;20256;6840;338144;-90
2022/07/20 09:33:49;;;;;;;6.47;6.07;;;39.40;24.50;;;;;;20762;6840;119133;-90
2022/07/20 09:36:14;;;;;;;5.60;5.07;;;39.40;24.30;;;;;;20771;6840;117104;-88
2022/07/20 09:38:40;;;;;;;5.70;5.30;;;39.20;24.20;;;;;;20540;6840;310532;-89
2022/07/20 09:41:07;;;;;;;6.07;5.10;;;39.40;24.70;;;;;;20555;6840;310449;-89
2022/07/20 09:43:31;;;;;;;11.20;5.32;;;39.70;24.10;;;;;;20715;6840;116928;-90
2022/07/20 09:45:57;;;;;;;5.87;5.40;;;39.80;23.60;;;;;;20521;6840;296520;-91
2022/07/20 09:48:24;;;;;;;5.60;5.20;;;40.00;23.20;;;;;;20734;6840;117799;-88
2022/07/20 09:50:48;;;;;;;5.50;5.00;;;40.00;23.40;;;;;;20538;6840;308114;-87
2022/07/20 09:53:14;;;;;;;5.70;5.20;;;40.00;23.10;;;;;;20779;6840;117128;-88
2022/07/20 09:55:39;;;;;;;5.50;5.10;;;40.00;23.10;;;;;;20556;6840;308585;-87
2022/07/20 09:58:04;;;;;;;5.53;5.13;;;40.10;22.10;;;;;;20774;6840;117088;-87
2022/07/20 10:00:30;;;;;;;5.40;4.90;;;40.10;22.90;;;;;;20540;6840;334628;-89
2022/07/20 10:02:55;;;;;;;5.73;5.23;;;40.20;21.90;;;;;;20772;6840;117848;-91
2022/07/20 10:05:21;;;;;;;5.53;5.10;;;40.30;22.20;;;;;;20576;6840;308642;-89
2022/07/20 10:07:47;;;;;;;4.70;4.40;;;40.30;22.70;;;;;;20775;6840;117567;-89
2022/07/20 10:10:13;;;;;;;4.80;4.33;;;40.10;22.10;;;;;;20783;6840;117200;-88
2022/07/20 10:12:38;;;;;;;5.13;4.63;;;40.10;22.10;;;;;;20549;6840;297969;-89
2022/07/20 10:15:07;;;;;;;5.20;4.80;;;40.20;21.60;;;;;;20775;6840;119695;-91
2022/07/20 10:17:33;;;;;;;5.00;4.60;;;40.20;21.60;;;;;;20754;6840;118499;-89
2022/07/20 10:19:59;;;;;;;8.20;5.10;;;40.10;21.70;;;;;;20566;6840;308638;-90
2022/07/20 10:22:24;;;;;;;6.05;4.60;;;40.30;20.90;;;;;;20571;6840;308568;-90
2022/07/20 10:25:13;;;;;;;5.30;4.90;;;40.60;21.50;;;;;;20800;6840;117508;-92
2022/07/20 10:27:38;;;;;;;5.20;4.80;;;40.60;21.10;;;;;;20846;6840;66819;-92
2022/07/20 10:30:14;;;;;;;4.90;4.53;;;40.30;21.00;;;;;;20806;6838;116524;-89
2022/07/20 10:32:39;;;;;;;7.77;5.07;;;40.20;21.10;;;;;;20542;6839;278641;-91
2022/07/20 10:35:05;;;;;;;18.40;5.00;;;40.30;21.80;;;;;;20726;6839;116365;-92
2022/07/20 10:37:41;;;;;;;5.75;4.30;;;40.30;21.60;;;;;;20706;6839;117879;-91
2022/07/20 10:40:09;;;;;;;5.00;4.50;;;40.20;21.70;;;;;;20534;6840;307551;-92
2022/07/20 10:42:38;;;;;;;4.37;3.97;;;40.30;20.50;;;;;;20761;6840;117558;-91
2022/07/20 10:45:15;;;;;;;5.22;4.82;;;40.10;21.10;;;;;;20767;6840;118225;-92
2022/07/20 10:47:43;;;;;;;5.20;4.62;;;40.10;21.10;;;;;;20777;6840;116974;-92
2022/07/20 10:50:16;;;;;;;5.07;4.40;;;39.90;21.10;;;;;;20769;6840;117054;-92
2022/07/20 10:52:42;;;;;;;6.07;5.00;;;39.80;21.30;;;;;;20635;6840;120352;-91
2022/07/20 10:55:08;;;;;;;5.20;4.70;;;39.80;21.30;;;;;;20559;6840;302208;-91
2022/07/20 10:57:39;;;;;;;6.30;4.67;;;40.00;21.40;;;;;;20682;6840;117110;-91
2022/07/20 11:00:09;;;;;;;5.82;4.80;;;40.00;21.30;;;;;;20748;6840;116986;-91
2022/07/20 11:02:35;;;;;;;6.83;4.30;;;39.90;21.60;;;;;;20745;6840;117826;-91
2022/07/20 11:05:00;;;;;;;5.87;5.10;;;39.80;21.30;;;;;;20779;6840;117448;-89
2022/07/20 11:07:29;;;;;;;6.17;5.10;;;39.70;21.60;;;;;;20501;6840;279004;-90
2022/07/20 11:09:54;;;;;;;5.23;4.70;;;39.80;21.30;;;;;;20561;6840;295410;-88
2022/07/20 11:12:23;;;;;;;5.20;4.80;;;40.10;21.50;;;;;;20772;6840;117610;-89
2022/07/20 11:14:53;;;;;;;5.37;4.90;;;40.10;21.70;;;;;;20538;6840;337860;-90
2022/07/20 11:17:22;;;;;;;7.03;4.80;;;40.20;21.90;;;;;;20784;6840;117139;-90
2022/07/20 11:19:48;;;;;;;5.57;5.07;;;40.20;21.80;;;;;;20768;6840;117120;-90
2022/07/20 11:22:16;;;;;;;6.07;5.10;;;40.10;22.10;;;;;;20770;6840;117425;-92
2022/07/20 11:24:42;;;;;;;7.90;4.97;;;39.90;22.30;;;;;;20747;6840;117404;-89
2022/07/20 11:27:14;;;;;;;5.20;4.80;;;39.80;22.40;;;;;;20554;6840;281406;-89
2022/07/20 11:29:46;;;;;;;5.17;4.87;;;40.00;22.30;;;;;;20765;6840;117057;-91
2022/07/20 11:32:12;;;;;;;5.53;5.13;;;40.10;22.10;;;;;;20555;6840;278104;-89
2022/07/20 11:34:48;;;;;;;8.05;4.82;;;40.30;22.10;;;;;;20741;6840;117569;-88
2022/07/20 11:37:17;;;;;;;5.50;4.97;;;40.30;21.90;;;;;;20767;6840;117713;-86
2022/07/20 11:39:42;;;;;;;5.68;5.18;;;40.10;21.90;;;;;;20770;6840;117307;-88
2022/07/20 11:42:12;;;;;;;5.30;4.90;;;40.00;22.40;;;;;;20545;6838;310126;-89
2022/07/20 11:44:37;;;;;;;6.35;5.10;;;40.00;22.20;;;;;;20510;6839;310029;-89
2022/07/20 11:47:04;;;;;;;5.10;4.70;;;40.20;22.40;;;;;;20773;6839;117296;-90
2022/07/20 11:49:30;;;;;;;5.73;5.23;;;40.20;22.60;;;;;;20764;6839;117142;-90
2022/07/20 11:51:55;;;;;;;5.43;5.03;;;40.00;22.10;;;;;;20560;6840;292915;-88
2022/07/20 11:54:22;;;;;;;5.95;5.45;;;40.00;22.50;;;;;;20772;6840;116595;-89
2022/07/20 11:56:48;;;;;;;6.93;5.20;;;39.80;22.40;;;;;;20749;6840;117647;-89
2022/07/20 11:59:15;;;;;;;5.50;5.00;;;39.80;22.40;;;;;;20752;6840;117302;-89
2022/07/20 12:01:41;;;;;;;5.65;5.20;;;39.70;22.70;;;;;;20772;6840;117573;-88
2022/07/20 12:04:06;;;;;;;7.90;5.67;;;39.50;22.80;;;;;;20766;6840;117614;-85
2022/07/20 12:06:32;;;;;;;6.03;5.47;;;39.50;23.10;;;;;;20745;6840;119574;-88
2022/07/20 12:09:05;;;;;;;5.73;5.20;;;39.40;23.00;;;;;;20766;6840;117588;-88
2022/07/20 12:11:31;;;;;;;6.53;5.80;;;39.40;23.20;;;;;;20778;6840;117531;-88
2022/07/20 12:13:57;;;;;;;5.95;5.40;;;39.40;22.80;;;;;;20742;6840;117310;-90
2022/07/20 12:16:22;;;;;;;5.80;5.20;;;39.30;22.90;;;;;;20771;6840;119189;-89
2022/07/20 12:18:47;;;;;;;6.60;5.47;;;39.30;23.10;;;;;;20754;6840;117825;-88
2022/07/20 12:21:13;;;;;;;5.90;5.50;;;39.20;23.30;;;;;;20763;6840;118098;-88
2022/07/20 12:23:40;;;;;;;6.53;5.50;;;39.20;23.30;;;;;;20555;6840;337255;-87
2022/07/20 12:26:25;;;;;;;6.65;5.70;;;39.40;22.90;;;;;;20763;6840;119609;-89
2022/07/20 12:28:52;;;;;;;6.28;5.70;;;39.50;22.80;;;;;;20759;6840;121668;-89
2022/07/20 12:31:19;;;;;;;8.18;5.55;;;39.40;22.70;;;;;;20562;6840;310605;-91
2022/07/20 12:34:04;;;;;;;5.97;5.40;;;39.50;22.50;;;;;;20581;6840;292827;-89